Time;durP1;ratioP1;P1;durP2;ratioP2;P2;SDS_P1;SDS_P2;PMS_P1;PMS_P2;Temp;Humidity;BMP_temperature;BMP_pressure;BME280_temperature;BME280_humidity;BME280_pressure;Samples;Min_cycle;Max_cycle;Signal;HPM_P1;HPM_P2
2021/08/19 00:03:50;;;;;;;4.65;3.30;;;;;;;13.73;71.37;98512.78;262606;1087;22854;-73
2021/08/19 00:08:53;;;;;;;4.50;3.10;;;;;;;13.67;71.85;98508.67;262647;1087;22869;-72
2021/08/19 00:14:03;;;;;;;3.80;2.63;;;;;;;13.62;72.05;98514.98;262706;1089;26015;-73
2021/08/19 00:19:11;;;;;;;4.50;3.35;;;;;;;13.58;72.22;98516.72;262662;1089;22779;-73
2021/08/19 00:24:16;;;;;;;4.60;2.50;;;;;;;13.50;72.26;98512.92;262639;1088;24538;-72
2021/08/19 00:29:20;;;;;;;4.20;3.10;;;;;;;13.41;72.37;98512.09;262696;1088;25890;-72
2021/08/19 00:34:23;;;;;;;5.35;3.00;;;;;;;13.32;72.82;98513.97;262719;1087;23400;-72
2021/08/19 00:39:26;;;;;;;3.45;2.85;;;;;;;13.29;73.17;98509.19;262797;1087;23327;-71
2021/08/19 00:44:31;;;;;;;4.57;3.37;;;;;;;13.26;73.59;98507.94;262652;1089;26002;-73
2021/08/19 00:49:42;;;;;;;6.23;3.73;;;;;;;13.25;73.50;98511.72;262828;1087;22775;-71
2021/08/19 00:55:00;;;;;;;6.70;4.23;;;;;;;13.23;73.74;98515.83;262667;1090;25176;-73
2021/08/19 01:00:04;;;;;;;6.80;4.30;;;;;;;13.23;74.13;98513.13;262662;1090;25910;-72
2021/08/19 01:05:20;;;;;;;5.07;3.73;;;;;;;13.20;74.05;98516.45;262698;1087;26002;-72
2021/08/19 01:10:24;;;;;;;7.15;3.55;;;;;;;13.15;74.44;98520.05;262926;1087;24477;-72
2021/08/19 01:15:37;;;;;;;5.65;3.40;;;;;;;13.12;74.68;98520.69;262871;1090;25903;-72
2021/08/19 01:20:55;;;;;;;5.65;3.90;;;;;;;13.09;74.92;98516.72;262623;1087;23333;-72
2021/08/19 01:25:59;;;;;;;5.40;3.60;;;;;;;13.08;75.41;98515.16;262634;1087;24352;-73
2021/08/19 01:31:05;;;;;;;7.07;3.50;;;;;;;13.09;75.52;98516.72;262848;1087;22776;-74
2021/08/19 01:36:09;;;;;;;4.20;2.95;;;;;;;13.11;75.67;98513.72;262921;1087;26286;-72
2021/08/19 01:41:12;;;;;;;4.40;3.00;;;;;;;13.08;75.59;98508.97;262758;1088;22795;-72
2021/08/19 01:46:22;;;;;;;4.63;3.50;;;;;;;13.02;75.67;98516.38;262704;1090;22785;-72
2021/08/19 01:51:36;;;;;;;5.50;3.45;;;;;;;12.98;76.08;98515.41;262696;1087;23496;-71
2021/08/19 01:56:40;;;;;;;5.83;2.73;;;;;;;12.94;76.14;98515.25;262677;1090;25906;-73
2021/08/19 02:01:43;;;;;;;4.95;3.30;;;;;;;12.91;76.51;98513.16;262720;1088;26334;-72
2021/08/19 02:06:47;;;;;;;3.90;2.95;;;;;;;12.90;76.71;98500.84;262686;1087;22767;-72
2021/08/19 02:11:51;;;;;;;4.20;2.97;;;;;;;12.90;76.86;98505.41;262621;1085;25989;-73
2021/08/19 02:16:55;;;;;;;2.85;2.25;;;;;;;12.92;77.01;98495.94;262718;1087;24459;-72
2021/08/19 02:21:58;;;;;;;6.60;2.43;;;;;;;12.97;77.30;98501.19;262734;1087;22843;-72
2021/08/19 02:27:02;;;;;;;3.43;2.70;;;;;;;13.05;77.48;98499.62;262841;1087;24282;-72
2021/08/19 02:32:08;;;;;;;3.53;2.50;;;;;;;13.13;77.27;98490.79;262765;1086;22758;-72
2021/08/19 02:43:55;;;;;;;3.17;2.50;;;;;;;13.31;77.35;98497.02;262792;1087;22982;-73
2021/08/19 02:48:58;;;;;;;3.20;2.37;;;;;;;13.37;77.58;98491.52;262837;1086;23625;-72
2021/08/19 02:54:01;;;;;;;3.17;2.30;;;;;;;13.43;77.44;98485.69;262850;1087;22931;-72
2021/08/19 02:59:03;;;;;;;4.43;2.13;;;;;;;13.50;77.37;98485.20;262692;1089;25894;-73
2021/08/19 03:04:14;;;;;;;3.07;2.70;;;;;;;13.51;77.40;98482.22;263015;1087;25778;-72
2021/08/19 03:09:22;;;;;;;4.10;1.90;;;;;;;13.54;77.29;98482.69;262790;1085;26395;-71
2021/08/19 03:14:25;;;;;;;2.93;2.20;;;;;;;13.57;77.41;98485.55;262944;1088;23043;-72
2021/08/19 03:19:30;;;;;;;3.17;2.37;;;;;;;13.59;77.60;98487.92;262771;1089;22796;-72
2021/08/19 03:24:46;;;;;;;2.80;2.15;;;;;;;13.60;77.51;98492.98;263032;1087;22950;-71
2021/08/19 03:29:55;;;;;;;3.10;2.10;;;;;;;13.63;77.71;98486.97;262761;1087;22770;-71
2021/08/19 03:35:18;;;;;;;2.20;2.00;;;;;;;13.70;77.74;98491.89;262829;1088;22764;-71
2021/08/19 03:40:21;;;;;;;3.17;2.30;;;;;;;13.77;77.81;98486.05;262867;1090;22863;-71
2021/08/19 03:45:25;;;;;;;3.17;2.40;;;;;;;13.85;77.88;98482.53;262963;1089;25893;-72
2021/08/19 03:50:28;;;;;;;2.30;1.67;;;;;;;13.89;77.86;98482.70;262780;1089;22775;-71
2021/08/19 03:55:31;;;;;;;2.90;1.95;;;;;;;13.94;77.91;98486.02;262928;1085;24021;-72
2021/08/19 04:00:34;;;;;;;5.20;2.40;;;;;;;14.02;78.10;98476.38;262930;1086;22760;-71
2021/08/19 04:05:49;;;;;;;3.10;2.30;;;;;;;14.07;78.03;98475.41;262963;1087;25736;-71
2021/08/19 04:11:07;;;;;;;4.07;2.90;;;;;;;14.12;77.98;98481.42;262744;1090;25906;-71
2021/08/19 04:16:26;;;;;;;4.27;3.00;;;;;;;14.18;77.53;98477.44;262811;1085;25784;-70
2021/08/19 04:21:53;;;;;;;3.47;2.83;;;;;;;14.25;78.24;98476.96;262721;1086;22760;-72
2021/08/19 04:26:57;;;;;;;3.20;2.85;;;;;;;14.32;78.10;98479.95;262703;1085;22763;-72
2021/08/19 04:32:01;;;;;;;4.85;3.10;;;;;;;14.43;78.05;98483.11;262919;1087;24078;-74
2021/08/19 04:37:05;;;;;;;4.00;3.10;;;;;;;14.55;78.18;98490.55;262763;1090;25893;-72
2021/08/19 04:42:09;;;;;;;4.65;3.30;;;;;;;14.66;77.97;98488.30;262907;1090;22963;-73
2021/08/19 04:47:12;;;;;;;4.60;3.03;;;;;;;14.79;77.93;98478.42;262735;1087;22818;-72
2021/08/19 04:52:22;;;;;;;3.50;3.10;;;;;;;14.97;77.84;98490.74;262736;1086;26012;-72
2021/08/19 04:57:42;;;;;;;3.85;3.05;;;;;;;15.14;77.63;98487.16;262746;1085;24034;-73
2021/08/19 05:02:45;;;;;;;3.27;2.47;;;;;;;15.26;77.33;98483.75;262895;1087;22907;-72
2021/08/19 05:07:59;;;;;;;2.85;2.20;;;;;;;15.36;77.01;98483.39;262792;1086;22856;-73
2021/08/19 05:13:17;;;;;;;2.90;2.50;;;;;;;15.50;76.81;98482.34;262820;1090;24343;-71
2021/08/19 05:18:31;;;;;;;3.55;2.65;;;;;;;15.67;76.69;98486.83;262824;1090;22758;-71
2021/08/19 05:23:34;;;;;;;5.10;2.70;;;;;;;15.85;76.56;98488.33;262710;1090;23433;-71
2021/08/19 05:28:43;;;;;;;4.55;2.80;;;;;;;15.98;76.27;98491.09;262709;1088;22929;-72
2021/08/19 05:33:49;;;;;;;3.25;2.60;;;;;;;16.13;76.05;98489.66;262740;1087;25878;-70
2021/08/19 05:38:52;;;;;;;4.17;2.60;;;;;;;16.29;75.72;98487.15;262757;1087;25855;-72
2021/08/19 05:43:56;;;;;;;3.70;2.50;;;;;;;16.41;75.51;98490.67;263056;1085;25957;-71
2021/08/19 05:49:00;;;;;;;3.50;2.00;;;;;;;16.59;75.28;98487.77;263170;1087;22744;-71
2021/08/19 05:54:03;;;;;;;3.07;2.30;;;;;;;16.82;74.75;98490.86;263352;1085;23551;-71
2021/08/19 05:59:08;;;;;;;3.45;2.40;;;;;;;16.98;74.11;98492.93;263181;1087;23420;-71
2021/08/19 06:04:11;;;;;;;4.20;3.05;;;;;;;17.12;74.18;98492.59;263489;1087;26031;-71
2021/08/19 06:09:16;;;;;;;4.73;2.60;;;;;;;17.31;73.64;98487.40;263311;1086;24387;-70
2021/08/19 06:14:19;;;;;;;3.25;2.00;;;;;;;17.49;73.17;98487.95;269249;1087;22768;-71
2021/08/19 06:19:22;;;;;;;3.20;2.60;;;;;;;17.68;72.76;98502.80;263394;1087;22921;-71
2021/08/19 06:24:27;;;;;;;4.05;2.50;;;;;;;17.81;72.05;98496.23;270057;1087;23452;-71
2021/08/19 06:29:30;;;;;;;2.90;2.15;;;;;;;18.01;71.57;98496.42;270106;1087;22543;-71
2021/08/19 06:34:34;;;;;;;2.70;2.30;;;;;;;18.15;71.15;98491.39;265018;1086;22836;-70
2021/08/19 06:39:37;;;;;;;4.77;2.30;;;;;;;18.25;70.72;98493.59;264881;1087;22970;-71
2021/08/19 06:44:40;;;;;;;3.20;2.25;;;;;;;18.39;70.57;98495.12;263187;1087;22779;-72
2021/08/19 06:49:46;;;;;;;2.40;2.20;;;;;;;18.51;69.99;98495.05;263217;1086;25880;-72
2021/08/19 06:54:49;;;;;;;2.93;2.20;;;;;;;18.64;69.89;98496.54;263073;1087;25995;-71
2021/08/19 06:59:53;;;;;;;3.55;2.40;;;;;;;18.80;69.17;98493.86;263227;1087;26266;-71
2021/08/19 07:04:58;;;;;;;2.80;2.30;;;;;;;18.80;68.05;98493.05;263111;1089;22832;-72
2021/08/19 07:10:09;;;;;;;2.80;2.50;;;;;;;18.87;68.52;98490.53;263042;1087;26019;-72
2021/08/19 07:15:13;;;;;;;2.55;2.35;;;;;;;19.07;68.13;98499.56;263185;1087;22772;-72
2021/08/19 07:20:17;;;;;;;3.75;2.75;;;;;;;19.24;66.67;98492.97;263103;1087;24317;-72
2021/08/19 07:25:23;;;;;;;3.77;2.50;;;;;;;19.31;66.80;98493.13;263240;1087;22793;-71
2021/08/19 07:30:26;;;;;;;3.30;2.50;;;;;;;19.45;66.39;98492.66;263681;1087;23360;-72
2021/08/19 07:35:29;;;;;;;2.53;2.20;;;;;;;19.57;66.27;98490.97;262975;1087;23327;-71
2021/08/19 07:40:34;;;;;;;2.53;2.30;;;;;;;19.77;65.45;98486.36;263281;1090;22802;-72
2021/08/19 07:45:52;;;;;;;2.67;2.17;;;;;;;19.74;64.71;98482.42;263024;1086;25874;-71
2021/08/19 07:50:56;;;;;;;5.53;2.30;;;;;;;19.91;64.93;98486.67;263007;1087;23267;-71
2021/08/19 07:56:01;;;;;;;2.43;1.90;;;;;;;20.19;64.43;98496.54;263242;1087;23385;-72
2021/08/19 08:01:04;;;;;;;2.37;2.03;;;;;;;20.26;63.05;98488.51;262997;1087;26420;-72
2021/08/19 08:06:08;;;;;;;2.90;2.10;;;;;;;20.30;63.09;98481.20;263242;1089;22771;-72
2021/08/19 08:11:12;;;;;;;3.47;2.17;;;;;;;20.53;62.20;98488.60;263384;1087;22830;-71
2021/08/19 08:16:17;;;;;;;2.90;2.40;;;;;;;20.67;62.01;98483.42;263091;1087;22771;-72
2021/08/19 08:21:20;;;;;;;3.90;2.13;;;;;;;20.79;62.20;98484.39;263209;1086;22797;-72
2021/08/19 08:26:24;;;;;;;1.87;1.77;;;;;;;21.00;61.86;98483.98;263009;1087;25960;-72
2021/08/19 08:31:27;;;;;;;2.20;2.00;;;;;;;21.21;60.70;98488.96;263161;1087;22776;-73
2021/08/19 08:36:32;;;;;;;3.48;2.33;;;;;;;21.41;60.63;98483.41;263227;1087;22786;-71
2021/08/19 08:41:39;;;;;;;3.23;2.33;;;;;;;21.49;59.68;98488.58;263121;1087;22927;-72
2021/08/19 08:46:45;;;;;;;4.00;2.50;;;;;;;21.48;59.82;98497.13;263174;1087;26009;-72
2021/08/19 08:51:55;;;;;;;5.17;2.80;;;;;;;21.45;60.46;98482.30;263565;1085;22772;-72
2021/08/19 08:57:00;;;;;;;4.38;2.90;;;;;;;21.65;60.42;98491.14;263194;1087;22806;-72
2021/08/19 09:02:03;;;;;;;3.17;2.40;;;;;;;21.64;59.09;98494.24;262958;1085;22840;-72
2021/08/19 09:07:07;;;;;;;4.00;2.18;;;;;;;21.64;59.13;98488.79;263520;1087;25893;-72
2021/08/19 09:12:10;;;;;;;2.70;2.38;;;;;;;21.78;58.75;98491.70;263199;1087;22776;-73
2021/08/19 09:17:14;;;;;;;2.63;2.15;;;;;;;21.93;60.19;98480.98;263414;1087;22778;-73
2021/08/19 09:22:17;;;;;;;2.28;1.80;;;;;;;22.23;58.79;98480.91;263476;1089;26018;-73
2021/08/19 09:27:21;;;;;;;2.38;2.18;;;;;;;22.27;58.21;98470.82;264389;1087;23769;-72
2021/08/19 09:32:24;;;;;;;2.25;2.08;;;;;;;22.25;57.18;98466.92;263493;1087;25993;-73
2021/08/19 09:37:28;;;;;;;3.03;2.13;;;;;;;21.99;57.48;98468.58;263564;1085;22809;-73
2021/08/19 09:42:36;;;;;;;2.37;2.17;;;;;;;21.79;58.50;98471.46;266716;1087;24328;-73
2021/08/19 09:47:40;;;;;;;2.37;1.90;;;;;;;21.75;57.77;98478.03;263489;1087;23359;-72
2021/08/19 09:52:47;;;;;;;1.83;1.73;;;;;;;21.57;57.67;98477.80;263139;1090;24322;-73
2021/08/19 09:57:52;;;;;;;2.78;1.53;;;;;;;21.33;58.21;98475.11;263152;1087;22795;-72
2021/08/19 10:02:56;;;;;;;2.35;1.70;;;;;;;21.08;57.89;98474.74;263480;1089;28835;-72
2021/08/19 10:07:59;;;;;;;1.50;1.25;;;;;;;20.81;58.22;98477.44;263049;1088;22795;-72
2021/08/19 10:13:03;;;;;;;2.53;1.70;;;;;;;20.64;58.54;98486.84;263013;1088;22793;-72
2021/08/19 10:18:14;;;;;;;16.55;9.95;;;;;;;20.76;58.49;98485.93;263306;1085;22857;-72
2021/08/19 10:23:23;;;;;;;2.40;2.07;;;;;;;21.13;58.87;98490.00;263191;1087;25935;-72
2021/08/19 10:28:27;;;;;;;10.33;8.45;;;;;;;21.52;57.66;98492.54;263219;1087;22863;-72
2021/08/19 10:33:36;;;;;;;3.20;2.60;;;;;;;21.80;57.05;98485.89;263492;1089;25876;-72
2021/08/19 10:38:40;;;;;;;1.75;1.65;;;;;;;22.16;57.22;98489.83;263311;1090;23343;-72
2021/08/19 10:44:08;;;;;;;2.18;1.50;;;;;;;22.31;56.65;98490.74;263183;1086;25784;-72
2021/08/19 10:49:31;;;;;;;1.88;1.60;;;;;;;22.20;54.51;98498.03;263221;1087;22779;-72
2021/08/19 10:54:46;;;;;;;1.70;1.60;;;;;;;21.87;54.54;98496.89;263055;1087;23388;-72
2021/08/19 11:00:16;;;;;;;1.75;1.40;;;;;;;21.56;55.21;98492.58;263158;1087;25308;-72
2021/08/19 11:05:25;;;;;;;1.83;1.58;;;;;;;21.61;56.17;98495.77;263107;1087;22916;-72
2021/08/19 11:10:41;;;;;;;;;;;;;;;22.01;55.87;98490.83;263160;1089;22943;-72
2021/08/19 11:15:46;;;;;;;1.23;1.23;;;;;;;22.38;55.00;98496.33;263273;1087;21454;-72
2021/08/19 11:20:51;;;;;;;1.63;1.40;;;;;;;22.64;53.43;98497.34;263637;1088;22758;-71
2021/08/19 11:26:00;;;;;;;1.68;1.58;;;;;;;22.81;53.12;98497.89;263005;1087;22764;-72
2021/08/19 11:31:25;;;;;;;1.50;1.40;;;;;;;22.90;53.21;98518.26;263085;1087;26255;-72
2021/08/19 11:36:40;;;;;;;1.65;1.55;;;;;;;22.97;52.61;98512.08;263056;1089;25877;-72
2021/08/19 11:42:01;;;;;;;2.73;1.93;;;;;;;22.96;52.26;98509.70;262881;1089;22775;-72
2021/08/19 11:47:12;;;;;;;1.98;1.55;;;;;;;23.00;51.54;98505.85;263279;1090;23340;-71
2021/08/19 11:52:15;;;;;;;2.05;1.50;;;;;;;23.04;51.86;98506.66;263090;1087;23516;-72
2021/08/19 11:57:25;;;;;;;2.18;1.70;;;;;;;23.32;52.17;98496.33;263028;1087;25893;-73
2021/08/19 12:02:34;;;;;;;3.48;1.70;;;;;;;23.69;50.55;98503.59;262968;1085;22895;-73
2021/08/19 12:07:57;;;;;;;2.73;2.20;;;;;;;23.77;49.91;98487.98;263063;1087;24050;-73
2021/08/19 12:13:00;;;;;;;1.83;1.73;;;;;;;23.86;49.30;98483.73;263023;1087;22947;-73
2021/08/19 12:18:06;;;;;;;2.48;2.28;;;;;;;23.73;48.22;98490.72;263177;1088;22879;-72
2021/08/19 12:23:15;;;;;;;2.75;1.60;;;;;;;23.59;48.80;98488.70;263114;1087;23335;-72
2021/08/19 12:28:23;;;;;;;1.60;1.50;;;;;;;23.67;48.42;98484.03;263046;1089;26018;-72
2021/08/19 12:33:39;;;;;;;1.80;1.70;;;;;;;23.73;49.09;98480.55;263106;1087;27007;-73
2021/08/19 12:39:35;;;;;;;4.15;3.00;;;;;;;23.83;47.03;98483.73;263074;1087;22806;-72
2021/08/19 12:44:39;;;;;;;2.63;2.43;;;;;;;24.24;47.88;98480.75;263238;1087;26232;-73
2021/08/19 12:49:42;;;;;;;1.80;1.70;;;;;;;24.13;46.59;98482.69;263036;1087;23388;-73
2021/08/19 12:55:11;;;;;;;1.85;1.75;;;;;;;23.86;46.25;98488.42;263116;1085;23391;-72
2021/08/19 13:00:20;;;;;;;2.00;1.53;;;;;;;23.48;46.99;98485.13;263145;1088;25311;-72
2021/08/19 13:05:27;;;;;;;1.43;1.30;;;;;;;23.43;47.42;98488.98;263279;1087;22824;-74
2021/08/19 13:10:38;;;;;;;2.20;1.50;;;;;;;23.75;48.48;98489.14;263142;1087;22930;-73
2021/08/19 13:15:58;;;;;;;1.73;1.63;;;;;;;23.92;47.01;98489.64;263004;1087;22779;-73
2021/08/19 13:21:07;;;;;;;1.98;1.88;;;;;;;23.84;46.49;98490.75;263218;1087;24370;-72
2021/08/19 13:26:11;;;;;;;3.55;3.25;;;;;;;23.68;46.39;98486.38;263109;1087;22940;-73
2021/08/19 13:31:14;;;;;;;2.80;2.30;;;;;;;23.50;46.52;98494.48;262977;1088;22774;-72
2021/08/19 13:36:17;;;;;;;1.60;1.50;;;;;;;23.19;46.26;98490.40;263079;1089;25874;-72
2021/08/19 13:41:21;;;;;;;3.35;2.38;;;;;;;22.94;46.99;98499.16;263005;1087;23629;-73
2021/08/19 13:46:24;;;;;;;2.70;2.30;;;;;;;22.80;47.46;98504.50;263231;1087;25878;-72
2021/08/19 13:51:30;;;;;;;1.75;1.65;;;;;;;22.55;48.19;98507.78;266212;1087;28321;-73
2021/08/19 13:56:33;;;;;;;2.35;1.98;;;;;;;22.41;48.36;98510.38;263303;1087;22921;-72
2021/08/19 14:01:38;;;;;;;2.50;2.30;;;;;;;22.32;48.78;98514.15;263329;1087;23335;-72
2021/08/19 14:06:42;;;;;;;1.98;1.78;;;;;;;22.43;48.85;98508.84;270108;1089;22562;-72
2021/08/19 14:11:52;;;;;;;1.63;1.53;;;;;;;22.65;48.88;98519.95;263994;1089;22758;-72
2021/08/19 14:17:11;;;;;;;2.03;1.50;;;;;;;22.92;48.88;98511.61;263234;1090;27559;-72
2021/08/19 14:22:14;;;;;;;2.53;2.33;;;;;;;23.14;47.70;98515.33;262816;1090;22838;-72
2021/08/19 14:27:18;;;;;;;1.75;1.55;;;;;;;23.26;47.90;98506.06;262940;1087;24163;-72
2021/08/19 14:32:22;;;;;;;1.65;1.55;;;;;;;23.42;47.52;98506.56;262820;1088;25830;-72
2021/08/19 14:37:25;;;;;;;2.30;2.10;;;;;;;23.57;47.22;98510.95;262729;1088;25403;-73
2021/08/19 14:42:28;;;;;;;1.80;1.68;;;;;;;23.48;46.99;98509.72;262782;1090;22782;-72
2021/08/19 14:47:37;;;;;;;2.65;2.45;;;;;;;23.47;46.70;98502.68;262722;1090;24077;-72
2021/08/19 14:52:41;;;;;;;1.58;1.48;;;;;;;23.27;47.19;98502.95;262842;1087;22780;-72
2021/08/19 14:57:51;;;;;;;1.90;1.80;;;;;;;23.32;47.20;98504.53;262818;1087;22811;-73
2021/08/19 15:03:03;;;;;;;2.30;2.10;;;;;;;23.52;47.36;98496.86;262650;1090;22950;-72
2021/08/19 15:08:13;;;;;;;2.00;1.90;;;;;;;23.68;47.39;98502.78;262887;1087;22797;-73
2021/08/19 15:13:16;;;;;;;2.28;2.08;;;;;;;23.70;46.92;98505.13;262689;1087;22765;-73
2021/08/19 15:18:20;;;;;;;1.93;1.80;;;;;;;23.65;46.57;98510.98;262803;1086;23574;-73
2021/08/19 15:23:23;;;;;;;2.73;2.53;;;;;;;23.64;46.69;98515.66;262813;1087;24322;-71
2021/08/19 15:28:36;;;;;;;1.73;1.63;;;;;;;23.57;46.70;98510.95;262759;1090;23445;-73
2021/08/19 15:33:52;;;;;;;2.10;1.90;;;;;;;23.54;46.32;98519.13;262858;1090;24776;-73
2021/08/19 15:38:55;;;;;;;2.33;2.13;;;;;;;23.52;47.14;98518.73;262778;1087;25958;-72
2021/08/19 15:43:59;;;;;;;4.03;3.00;;;;;;;23.55;46.87;98523.43;262847;1086;26002;-73
2021/08/19 15:49:02;;;;;;;2.35;2.08;;;;;;;23.43;46.55;98523.74;262949;1086;24345;-72
2021/08/19 15:54:06;;;;;;;1.80;1.70;;;;;;;23.19;46.63;98528.65;262665;1087;24160;-72
2021/08/19 15:59:23;;;;;;;3.78;1.93;;;;;;;22.95;46.90;98527.27;262859;1087;22859;-72
2021/08/19 16:04:54;;;;;;;1.90;1.70;;;;;;;22.75;47.98;98529.41;262851;1087;24307;-72
2021/08/19 16:10:06;;;;;;;2.83;1.80;;;;;;;22.65;48.30;98528.15;262727;1087;24207;-72
2021/08/19 16:15:10;;;;;;;4.65;2.03;;;;;;;22.51;48.71;98529.59;262822;1087;27374;-72
2021/08/19 16:20:14;;;;;;;1.98;1.88;;;;;;;22.41;48.89;98524.79;262697;1086;22889;-72
2021/08/19 16:25:30;;;;;;;2.38;2.18;;;;;;;22.26;48.87;98536.67;262768;1087;24319;-72
2021/08/19 16:30:46;;;;;;;2.45;1.93;;;;;;;22.08;49.41;98533.73;262684;1086;26005;-73
2021/08/19 16:35:49;;;;;;;2.83;2.10;;;;;;;21.90;49.83;98528.86;262741;1087;22937;-74
2021/08/19 16:41:07;;;;;;;2.65;2.45;;;;;;;21.78;50.03;98546.22;262876;1086;25903;-73
2021/08/19 16:46:26;;;;;;;2.55;2.15;;;;;;;21.62;50.30;98556.53;262746;1087;22866;-71
2021/08/19 16:51:44;;;;;;;3.43;2.20;;;;;;;21.46;51.09;98543.81;262745;1087;26398;-72
2021/08/19 16:57:06;;;;;;;2.20;2.00;;;;;;;21.35;51.56;98548.32;262798;1087;26248;-73
2021/08/19 17:02:10;;;;;;;4.30;2.08;;;;;;;21.25;51.96;98551.65;262726;1087;26261;-72
2021/08/19 17:07:13;;;;;;;4.53;2.60;;;;;;;21.18;51.78;98555.04;262750;1087;26053;-72
2021/08/19 17:12:17;;;;;;;3.23;2.93;;;;;;;21.08;52.18;98553.71;262833;1087;25990;-72
2021/08/19 17:17:21;;;;;;;3.53;2.53;;;;;;;20.98;52.68;98555.11;262798;1085;22821;-73
2021/08/19 17:22:26;;;;;;;4.63;3.37;;;;;;;20.87;52.67;98556.86;262779;1089;22821;-72
2021/08/19 17:27:30;;;;;;;3.85;3.40;;;;;;;20.76;53.52;98559.42;262826;1088;26430;-72
2021/08/19 17:32:33;;;;;;;4.25;3.60;;;;;;;20.65;53.73;98551.02;262814;1089;23712;-72
2021/08/19 17:37:36;;;;;;;4.23;3.80;;;;;;;20.57;54.08;98548.54;262770;1087;25784;-72
2021/08/19 17:42:43;;;;;;;5.03;3.03;;;;;;;20.47;54.90;98549.91;262838;1090;22943;-72
2021/08/19 17:48:06;;;;;;;3.17;2.87;;;;;;;20.32;54.99;98546.89;262703;1088;24348;-72
2021/08/19 17:53:11;;;;;;;3.30;3.00;;;;;;;20.24;56.03;98547.90;262753;1087;22857;-72
2021/08/19 17:58:15;;;;;;;3.00;2.37;;;;;;;20.13;55.96;98555.86;262737;1085;22941;-72
2021/08/19 18:03:20;;;;;;;3.27;2.97;;;;;;;20.09;57.07;98552.28;263042;1087;22797;-73
2021/08/19 18:08:25;;;;;;;3.73;3.43;;;;;;;20.04;56.93;98557.22;262892;1087;24066;-72
2021/08/19 18:13:28;;;;;;;4.00;3.60;;;;;;;19.93;57.56;98563.20;262689;1087;27016;-73
2021/08/19 18:18:35;;;;;;;3.60;3.30;;;;;;;19.85;57.92;98561.47;262973;1085;25742;-71
2021/08/19 18:23:40;;;;;;;4.25;3.85;;;;;;;19.76;57.52;98571.73;262649;1089;24126;-73
2021/08/19 18:28:45;;;;;;;4.25;3.85;;;;;;;19.66;57.77;98583.94;262760;1089;22882;-72
2021/08/19 18:33:48;;;;;;;4.25;3.30;;;;;;;19.58;57.79;98579.48;262687;1090;25992;-72
2021/08/19 18:38:51;;;;;;;5.65;4.00;;;;;;;19.53;58.01;98585.18;262703;1087;25906;-73
2021/08/19 18:43:55;;;;;;;5.45;3.80;;;;;;;19.54;58.86;98586.77;262685;1087;25954;-71
2021/08/19 18:48:58;;;;;;;4.85;3.65;;;;;;;19.56;58.97;98595.33;262706;1090;24306;-72
2021/08/19 18:54:04;;;;;;;4.20;3.80;;;;;;;19.56;59.24;98596.14;262718;1089;25912;-72
2021/08/19 18:59:08;;;;;;;5.20;4.75;;;;;;;19.54;59.18;98601.13;262740;1087;22814;-72
2021/08/19 19:04:12;;;;;;;3.70;3.40;;;;;;;19.47;59.70;98606.39;262702;1087;25858;-71
2021/08/19 19:09:15;;;;;;;3.45;3.15;;;;;;;19.40;59.51;98606.22;262684;1085;24765;-72
2021/08/19 19:14:20;;;;;;;3.90;3.60;;;;;;;19.30;59.59;98611.03;262853;1087;25999;-72
2021/08/19 19:19:23;;;;;;;2.90;2.70;;;;;;;19.27;60.28;98613.67;262803;1090;22790;-71
2021/08/19 19:24:26;;;;;;;8.05;3.80;;;;;;;19.26;59.67;98618.30;262787;1089;25989;-72
2021/08/19 19:29:29;;;;;;;4.47;3.33;;;;;;;19.24;59.83;98626.02;262852;1087;26002;-72
2021/08/19 19:34:32;;;;;;;4.00;3.70;;;;;;;19.19;60.00;98626.27;262793;1087;25423;-72
2021/08/19 19:39:37;;;;;;;5.90;4.30;;;;;;;19.14;60.49;98629.27;262710;1088;25909;-72
2021/08/19 19:44:48;;;;;;;6.05;3.90;;;;;;;19.12;60.59;98621.44;262981;1088;25896;-72
2021/08/19 19:49:52;;;;;;;4.55;3.50;;;;;;;19.05;60.59;98621.27;262731;1090;23718;-72
2021/08/19 19:54:55;;;;;;;3.90;3.20;;;;;;;19.00;60.76;98624.26;262769;1090;25992;-72
2021/08/19 19:59:58;;;;;;;5.83;4.40;;;;;;;18.97;61.17;98609.45;262716;1087;27249;-71
2021/08/19 20:05:05;;;;;;;5.90;4.75;;;;;;;18.92;61.33;98620.55;262709;1089;24306;-72
2021/08/19 20:10:10;;;;;;;6.65;4.70;;;;;;;18.85;61.61;98630.42;262769;1087;22779;-72
2021/08/19 20:15:13;;;;;;;5.40;4.55;;;;;;;18.75;62.41;98628.99;262677;1088;25910;-71
2021/08/19 20:20:18;;;;;;;5.00;4.30;;;;;;;18.64;62.70;98634.89;262930;1089;22787;-73
2021/08/19 20:25:22;;;;;;;5.60;4.80;;;;;;;18.60;62.97;98634.00;262783;1090;24256;-71
2021/08/19 20:30:28;;;;;;;6.05;5.20;;;;;;;18.55;63.03;98636.17;262719;1087;23414;-72
2021/08/19 20:35:32;;;;;;;6.63;5.27;;;;;;;18.53;63.18;98639.23;262847;1086;22784;-72
2021/08/19 20:40:38;;;;;;;5.10;3.95;;;;;;;18.51;63.29;98646.13;262744;1087;25880;-72
2021/08/19 20:45:41;;;;;;;4.50;3.35;;;;;;;18.52;63.41;98642.30;262827;1087;22781;-72
2021/08/19 20:50:53;;;;;;;5.00;4.00;;;;;;;18.56;63.33;98645.90;262728;1087;24141;-72
2021/08/19 20:56:03;;;;;;;4.87;3.73;;;;;;;18.58;63.01;98647.14;262751;1087;22962;-72
2021/08/19 21:01:11;;;;;;;4.90;3.57;;;;;;;18.56;63.26;98649.39;262707;1086;25887;-72
2021/08/19 21:06:46;;;;;;;3.80;3.35;;;;;;;18.55;63.16;98655.97;262713;1089;25787;-73
2021/08/19 21:12:05;;;;;;;4.95;3.25;;;;;;;18.48;63.25;98655.74;262814;1087;28395;-71
2021/08/19 21:17:09;;;;;;;4.90;4.30;;;;;;;18.44;63.53;98652.17;262688;1088;23622;-72
2021/08/19 21:22:12;;;;;;;5.37;4.37;;;;;;;18.34;64.14;98664.28;262781;1089;22827;-71
2021/08/19 21:27:15;;;;;;;6.15;4.35;;;;;;;18.25;64.70;98656.26;262739;1089;23836;-72
2021/08/19 21:32:26;;;;;;;5.20;4.55;;;;;;;18.22;64.81;98661.59;262694;1090;23027;-73
2021/08/19 21:37:34;;;;;;;5.40;4.85;;;;;;;18.22;65.38;98661.59;262999;1087;22822;-72
2021/08/19 21:42:38;;;;;;;5.85;4.70;;;;;;;18.22;65.32;98658.88;262735;1087;24032;-72
2021/08/19 21:47:44;;;;;;;5.60;4.40;;;;;;;18.23;65.29;98660.44;262700;1090;25929;-72
2021/08/19 21:52:49;;;;;;;4.00;3.35;;;;;;;18.26;65.51;98659.78;262668;1087;24457;-72
2021/08/19 21:57:53;;;;;;;3.60;3.30;;;;;;;18.25;65.28;98661.69;262904;1088;25852;-73
2021/08/19 22:02:56;;;;;;;4.75;3.95;;;;;;;18.26;65.28;98659.78;262661;1089;25881;-72
2021/08/19 22:08:11;;;;;;;4.20;3.80;;;;;;;18.23;65.54;98663.95;262682;1090;25976;-71
2021/08/19 22:13:32;;;;;;;4.20;3.70;;;;;;;18.18;65.70;98664.19;262775;1090;22804;-71
2021/08/19 22:18:50;;;;;;;6.27;4.30;;;;;;;18.16;65.46;98669.17;262694;1087;22854;-74
2021/08/19 22:24:03;;;;;;;4.80;4.10;;;;;;;18.23;65.97;98674.00;262617;1089;22827;-72
2021/08/19 22:29:28;;;;;;;7.15;3.95;;;;;;;18.22;65.76;98675.15;262664;1087;22744;-72
2021/08/19 22:34:40;;;;;;;4.70;4.20;;;;;;;18.20;65.61;98680.91;262664;1087;26414;-72
2021/08/19 22:39:49;;;;;;;5.25;3.70;;;;;;;18.19;65.91;98690.17;262709;1087;22895;-72
2021/08/19 22:44:52;;;;;;;4.55;3.35;;;;;;;18.17;66.28;98684.28;262868;1089;25269;-72
2021/08/19 22:49:56;;;;;;;4.50;4.10;;;;;;;18.15;66.26;98689.27;262746;1087;23884;-74
2021/08/19 22:55:01;;;;;;;4.55;4.10;;;;;;;18.17;66.47;98689.70;262820;1087;22826;-73
2021/08/19 23:00:10;;;;;;;5.80;4.30;;;;;;;18.12;66.35;98698.87;262665;1089;22793;-72
2021/08/19 23:05:13;;;;;;;5.00;3.80;;;;;;;18.08;66.49;98695.26;262776;1087;22784;-74
2021/08/19 23:10:16;;;;;;;5.10;4.00;;;;;;;18.04;66.81;98694.36;262806;1087;22843;-72
2021/08/19 23:15:20;;;;;;;7.20;5.10;;;;;;;18.01;67.21;98700.45;262768;1088;23045;-73
2021/08/19 23:20:24;;;;;;;6.03;4.90;;;;;;;17.97;67.18;98701.48;262752;1086;23660;-73
2021/08/19 23:25:28;;;;;;;6.40;4.25;;;;;;;17.90;67.37;98694.66;262878;1088;25511;-72
2021/08/19 23:30:39;;;;;;;7.60;5.33;;;;;;;17.88;67.69;98696.94;262609;1085;25992;-73
2021/08/19 23:35:42;;;;;;;6.05;5.00;;;;;;;17.87;67.93;98699.98;262783;1086;26284;-73
2021/08/19 23:40:45;;;;;;;5.85;5.35;;;;;;;17.85;67.65;98703.05;262750;1089;22779;-71
2021/08/19 23:45:50;;;;;;;8.93;4.60;;;;;;;17.86;67.92;98707.31;262745;1086;25872;-72
2021/08/19 23:50:55;;;;;;;8.65;5.30;;;;;;;17.86;67.95;98699.18;262669;1087;22763;-72
2021/08/19 23:55:58;;;;;;;8.00;5.20;;;;;;;17.89;67.95;98701.23;262736;1089;25896;-72
